RYR80RF EPKK-LKPR
Flight info
| Callsign | RYR80RF |
|---|---|
| Flight time | 0h 47m |
| Altitude | 32000 |
| Route | TUSIN DCT LABUK DCT TUMKA DCT VLM |
| Aircraft | B38M/M-SADE3FGILRWY/SB1 |
Departure
| Time | 2026-05-07 16:30 |
|---|---|
| Airport | Kraków John Paul II International Airport (EPKK) |
Arrival
| Time | 2026-05-07 17:17 |
|---|---|
| Airport | Václav Havel Airport Prague (LKPR) |
| Time | Latitude | Longitude | Altitude | Speed | Heading |
|---|---|---|---|---|---|
| 2026-05-07 16:00 | 50.07479 | 19.80077 | 802 ft | 0 kts | 168° |
| 2026-05-07 16:24 | 50.07477 | 19.80078 | 802 ft | 2 kts | 168° |
| 2026-05-07 16:24 | 50.07437 | 19.80094 | 802 ft | 11 kts | 156° |
| 2026-05-07 16:25 | 50.07416 | 19.80162 | 802 ft | 4 kts | 75° |
| 2026-05-07 16:25 | 50.07428 | 19.80228 | 802 ft | 9 kts | 75° |
| 2026-05-07 16:25 | 50.07448 | 19.80341 | 802 ft | 12 kts | 64° |
| 2026-05-07 16:25 | 50.07524 | 19.80401 | 802 ft | 13 kts | 16° |
| 2026-05-07 16:26 | 50.07622 | 19.80411 | 802 ft | 15 kts | 348° |
| 2026-05-07 16:26 | 50.07728 | 19.80376 | 802 ft | 13 kts | 347° |
| 2026-05-07 16:26 | 50.07776 | 19.80359 | 803 ft | 1 kts | 347° |
| 2026-05-07 16:26 | 50.07792 | 19.80353 | 802 ft | 5 kts | 347° |
| 2026-05-07 16:27 | 50.07837 | 19.80339 | 803 ft | 0 kts | 348° |
| 2026-05-07 16:28 | 50.07848 | 19.80335 | 803 ft | 3 kts | 347° |
| 2026-05-07 16:28 | 50.07882 | 19.80323 | 802 ft | 7 kts | 347° |
| 2026-05-07 16:28 | 50.07951 | 19.80300 | 802 ft | 13 kts | 347° |
| 2026-05-07 16:29 | 50.08010 | 19.80201 | 803 ft | 14 kts | 265° |
| 2026-05-07 16:29 | 50.08007 | 19.80173 | 803 ft | 1 kts | 257° |
| 2026-05-07 16:29 | 50.08005 | 19.80158 | 803 ft | 2 kts | 257° |
| 2026-05-07 16:29 | 50.07982 | 19.79989 | 803 ft | 50 kts | 257° |
| 2026-05-07 16:30 | 50.07849 | 19.79038 | 803 ft | 127 kts | 257° |
| 2026-05-07 16:30 | 50.07618 | 19.77362 | 842 ft | 184 kts | 256° |
| 2026-05-07 16:30 | 50.07367 | 19.75238 | 1320 ft | 211 kts | 259° |
| 2026-05-07 16:30 | 50.07072 | 19.72960 | 2381 ft | 209 kts | 255° |
| 2026-05-07 16:31 | 50.06730 | 19.70718 | 3431 ft | 222 kts | 256° |
| 2026-05-07 16:31 | 50.06372 | 19.68315 | 4392 ft | 229 kts | 257° |
| 2026-05-07 16:31 | 50.06017 | 19.65875 | 5454 ft | 236 kts | 257° |
| 2026-05-07 16:31 | 50.05654 | 19.63345 | 5903 ft | 241 kts | 257° |
| 2026-05-07 16:32 | 50.05293 | 19.60804 | 5993 ft | 241 kts | 257° |
| 2026-05-07 16:32 | 50.04934 | 19.58260 | 6019 ft | 242 kts | 257° |
| 2026-05-07 16:32 | 50.04492 | 19.55742 | 6726 ft | 241 kts | 252° |
| 2026-05-07 16:32 | 50.03986 | 19.53232 | 7695 ft | 249 kts | 252° |
| 2026-05-07 16:33 | 50.03457 | 19.50579 | 8450 ft | 265 kts | 252° |
| 2026-05-07 16:33 | 50.02911 | 19.47816 | 9483 ft | 268 kts | 252° |
| 2026-05-07 16:33 | 50.02361 | 19.45022 | 10388 ft | 276 kts | 252° |
| 2026-05-07 16:33 | 50.01781 | 19.42075 | 10940 ft | 295 kts | 252° |
| 2026-05-07 16:34 | 50.01165 | 19.38946 | 11576 ft | 309 kts | 252° |
| 2026-05-07 16:34 | 50.00527 | 19.35708 | 12407 ft | 315 kts | 251° |
| 2026-05-07 16:34 | 49.99880 | 19.32431 | 13324 ft | 320 kts | 251° |
| 2026-05-07 16:34 | 49.99223 | 19.29105 | 14119 ft | 325 kts | 251° |
| 2026-05-07 16:35 | 49.98553 | 19.25728 | 14889 ft | 329 kts | 251° |
| 2026-05-07 16:35 | 49.97875 | 19.22310 | 15653 ft | 333 kts | 251° |
| 2026-05-07 16:35 | 49.97187 | 19.18847 | 16397 ft | 338 kts | 250° |
| 2026-05-07 16:35 | 49.96489 | 19.15343 | 17141 ft | 342 kts | 250° |
| 2026-05-07 16:36 | 49.95782 | 19.11795 | 17872 ft | 346 kts | 250° |
| 2026-05-07 16:36 | 49.95064 | 19.08203 | 18521 ft | 350 kts | 249° |
| 2026-05-07 16:36 | 49.94341 | 19.04590 | 19168 ft | 352 kts | 249° |
| 2026-05-07 16:36 | 49.93613 | 19.00958 | 19825 ft | 354 kts | 249° |
| 2026-05-07 16:37 | 49.92878 | 18.97297 | 20467 ft | 356 kts | 249° |
| 2026-05-07 16:37 | 49.92140 | 18.93628 | 21190 ft | 356 kts | 248° |
| 2026-05-07 16:37 | 49.91402 | 18.89969 | 21909 ft | 356 kts | 248° |
| 2026-05-07 16:37 | 49.90658 | 18.86287 | 22475 ft | 360 kts | 248° |
| 2026-05-07 16:38 | 49.89906 | 18.82575 | 23071 ft | 362 kts | 248° |
| 2026-05-07 16:38 | 49.89149 | 18.78840 | 23632 ft | 365 kts | 248° |
| 2026-05-07 16:38 | 49.88386 | 18.75087 | 24113 ft | 367 kts | 247° |
| 2026-05-07 16:38 | 49.87617 | 18.71305 | 24602 ft | 369 kts | 247° |
| 2026-05-07 16:39 | 49.86839 | 18.67492 | 25087 ft | 371 kts | 247° |
| 2026-05-07 16:39 | 49.86056 | 18.63663 | 25541 ft | 374 kts | 247° |
| 2026-05-07 16:39 | 49.85279 | 18.59869 | 26001 ft | 375 kts | 247° |
| 2026-05-07 16:39 | 49.84372 | 18.56026 | 26445 ft | 373 kts | 239° |
| 2026-05-07 16:40 | 49.83231 | 18.52465 | 26843 ft | 376 kts | 240° |
| 2026-05-07 16:40 | 49.82110 | 18.48722 | 27279 ft | 379 kts | 240° |
| 2026-05-07 16:40 | 49.81025 | 18.45058 | 27729 ft | 381 kts | 240° |
| 2026-05-07 16:40 | 49.79922 | 18.41318 | 28169 ft | 383 kts | 240° |
| 2026-05-07 16:41 | 49.78813 | 18.37553 | 28620 ft | 385 kts | 240° |
| 2026-05-07 16:41 | 49.77698 | 18.33770 | 29043 ft | 387 kts | 240° |
| 2026-05-07 16:41 | 49.76579 | 18.29973 | 29502 ft | 388 kts | 240° |
| 2026-05-07 16:41 | 49.75462 | 18.26189 | 30059 ft | 386 kts | 240° |
| 2026-05-07 16:42 | 49.74349 | 18.22427 | 30526 ft | 384 kts | 240° |
| 2026-05-07 16:42 | 49.73239 | 18.18679 | 30975 ft | 383 kts | 240° |
| 2026-05-07 16:42 | 49.72131 | 18.14950 | 31433 ft | 381 kts | 240° |
| 2026-05-07 16:42 | 49.71027 | 18.11232 | 31842 ft | 380 kts | 240° |
| 2026-05-07 16:43 | 49.69920 | 18.07516 | 31950 ft | 380 kts | 240° |
| 2026-05-07 16:43 | 49.67722 | 18.00149 | 31943 ft | 377 kts | 240° |
| 2026-05-07 16:44 | 49.65529 | 17.92820 | 31939 ft | 377 kts | 240° |
| 2026-05-07 16:44 | 49.63326 | 17.85481 | 31935 ft | 377 kts | 240° |
| 2026-05-07 16:45 | 49.61119 | 17.78149 | 31941 ft | 377 kts | 239° |
| 2026-05-07 16:45 | 49.58908 | 17.70827 | 31944 ft | 377 kts | 239° |
| 2026-05-07 16:46 | 49.56694 | 17.63517 | 31950 ft | 377 kts | 239° |
| 2026-05-07 16:46 | 49.54478 | 17.56221 | 31940 ft | 377 kts | 239° |
| 2026-05-07 16:47 | 49.52253 | 17.48914 | 31942 ft | 378 kts | 239° |
| 2026-05-07 16:47 | 49.50102 | 17.41536 | 31930 ft | 382 kts | 248° |
| 2026-05-07 16:47 | 49.49709 | 17.37447 | 31955 ft | 392 kts | 260° |
| 2026-05-07 16:48 | 49.49491 | 17.33271 | 31924 ft | 391 kts | 257° |
| 2026-05-07 16:48 | 49.48960 | 17.24944 | 31939 ft | 392 kts | 258° |
| 2026-05-07 16:49 | 49.48466 | 17.16555 | 31934 ft | 396 kts | 258° |
| 2026-05-07 16:49 | 49.47984 | 17.08236 | 31936 ft | 377 kts | 258° |
| 2026-05-07 16:49 | 49.47752 | 17.04279 | 31789 ft | 367 kts | 258° |
| 2026-05-07 16:50 | 49.47522 | 17.00403 | 31393 ft | 363 kts | 257° |
| 2026-05-07 16:50 | 49.47293 | 16.96544 | 30930 ft | 362 kts | 257° |
| 2026-05-07 16:50 | 49.47064 | 16.92698 | 30484 ft | 360 kts | 257° |
| 2026-05-07 16:50 | 49.46836 | 16.88892 | 30061 ft | 358 kts | 257° |
| 2026-05-07 16:51 | 49.46608 | 16.85092 | 29598 ft | 356 kts | 257° |
| 2026-05-07 16:51 | 49.46380 | 16.81324 | 29169 ft | 353 kts | 257° |
| 2026-05-07 16:51 | 49.46152 | 16.77583 | 28771 ft | 349 kts | 257° |
| 2026-05-07 16:51 | 49.45926 | 16.73889 | 28431 ft | 346 kts | 257° |
| 2026-05-07 16:52 | 49.45700 | 16.70218 | 28011 ft | 344 kts | 257° |
| 2026-05-07 16:52 | 49.45475 | 16.66579 | 27626 ft | 341 kts | 257° |
| 2026-05-07 16:52 | 49.45250 | 16.62964 | 27247 ft | 338 kts | 257° |
| 2026-05-07 16:52 | 49.45026 | 16.59385 | 26890 ft | 335 kts | 257° |
| 2026-05-07 16:53 | 49.44804 | 16.55845 | 26533 ft | 332 kts | 257° |
| 2026-05-07 16:53 | 49.44582 | 16.52326 | 26168 ft | 329 kts | 257° |
| 2026-05-07 16:53 | 49.44360 | 16.48836 | 25840 ft | 326 kts | 257° |
| 2026-05-07 16:53 | 49.44140 | 16.45384 | 25496 ft | 324 kts | 257° |
| 2026-05-07 16:54 | 49.43920 | 16.41950 | 25155 ft | 322 kts | 257° |
| 2026-05-07 16:54 | 49.43701 | 16.38543 | 24828 ft | 320 kts | 257° |
| 2026-05-07 16:54 | 49.43482 | 16.35153 | 24482 ft | 318 kts | 258° |
| 2026-05-07 16:54 | 49.43263 | 16.31786 | 24148 ft | 316 kts | 258° |
| 2026-05-07 16:55 | 49.43045 | 16.28446 | 23830 ft | 313 kts | 258° |
| 2026-05-07 16:55 | 49.42828 | 16.25133 | 23529 ft | 311 kts | 259° |
| 2026-05-07 16:55 | 49.42611 | 16.21836 | 23134 ft | 310 kts | 259° |
| 2026-05-07 16:55 | 49.42394 | 16.18550 | 22779 ft | 307 kts | 259° |
| 2026-05-07 16:56 | 49.42251 | 16.16404 | 22567 ft | 305 kts | 259° |
| 2026-05-07 16:56 | 49.42035 | 16.13164 | 22250 ft | 307 kts | 259° |
| 2026-05-07 16:56 | 49.41594 | 16.06561 | 21610 ft | 313 kts | 259° |
| 2026-05-07 16:57 | 49.41370 | 16.03235 | 21290 ft | 313 kts | 260° |
| 2026-05-07 16:57 | 49.41147 | 15.99917 | 20964 ft | 311 kts | 260° |
| 2026-05-07 16:57 | 49.40958 | 15.96614 | 20616 ft | 312 kts | 266° |
| 2026-05-07 16:57 | 49.41373 | 15.93312 | 20219 ft | 321 kts | 288° |
| 2026-05-07 16:58 | 49.42399 | 15.90270 | 19939 ft | 319 kts | 292° |
| 2026-05-07 16:58 | 49.43396 | 15.87243 | 19635 ft | 316 kts | 292° |
| 2026-05-07 16:58 | 49.44397 | 15.84241 | 19319 ft | 314 kts | 292° |
| 2026-05-07 16:58 | 49.45396 | 15.81272 | 19018 ft | 312 kts | 293° |
| 2026-05-07 16:59 | 49.46396 | 15.78316 | 18690 ft | 311 kts | 293° |
| 2026-05-07 16:59 | 49.47392 | 15.75380 | 18370 ft | 309 kts | 293° |
| 2026-05-07 16:59 | 49.48380 | 15.72467 | 18025 ft | 307 kts | 293° |
| 2026-05-07 16:59 | 49.49362 | 15.69571 | 17688 ft | 304 kts | 293° |
| 2026-05-07 17:00 | 49.50337 | 15.66694 | 17372 ft | 301 kts | 293° |
| 2026-05-07 17:00 | 49.51299 | 15.63853 | 17048 ft | 298 kts | 293° |
| 2026-05-07 17:00 | 49.52250 | 15.61041 | 16749 ft | 295 kts | 293° |
| 2026-05-07 17:00 | 49.53188 | 15.58263 | 16459 ft | 292 kts | 293° |
| 2026-05-07 17:01 | 49.54120 | 15.55500 | 16158 ft | 289 kts | 293° |
| 2026-05-07 17:01 | 49.55053 | 15.52732 | 15857 ft | 294 kts | 293° |
| 2026-05-07 17:01 | 49.55999 | 15.49923 | 15536 ft | 298 kts | 293° |
| 2026-05-07 17:01 | 49.56942 | 15.47119 | 15236 ft | 299 kts | 293° |
| 2026-05-07 17:02 | 49.57895 | 15.44280 | 14938 ft | 298 kts | 293° |
| 2026-05-07 17:02 | 49.58846 | 15.41447 | 14639 ft | 298 kts | 293° |
| 2026-05-07 17:02 | 49.59795 | 15.38613 | 14322 ft | 297 kts | 293° |
| 2026-05-07 17:02 | 49.60743 | 15.35784 | 14000 ft | 296 kts | 293° |
| 2026-05-07 17:03 | 49.61682 | 15.32977 | 13698 ft | 293 kts | 293° |
| 2026-05-07 17:03 | 49.62613 | 15.30188 | 13364 ft | 292 kts | 293° |
| 2026-05-07 17:03 | 49.63538 | 15.27417 | 13045 ft | 289 kts | 293° |
| 2026-05-07 17:03 | 49.64451 | 15.24678 | 12927 ft | 287 kts | 293° |
| 2026-05-07 17:04 | 49.65367 | 15.21928 | 12966 ft | 288 kts | 293° |
| 2026-05-07 17:04 | 49.66281 | 15.19176 | 12956 ft | 289 kts | 293° |
| 2026-05-07 17:04 | 49.67197 | 15.16422 | 12956 ft | 289 kts | 293° |
| 2026-05-07 17:04 | 49.68112 | 15.13664 | 12953 ft | 289 kts | 293° |
| 2026-05-07 17:05 | 49.69028 | 15.10905 | 12961 ft | 288 kts | 293° |
| 2026-05-07 17:05 | 49.69942 | 15.08146 | 12965 ft | 289 kts | 293° |
| 2026-05-07 17:05 | 49.70967 | 15.05480 | 12899 ft | 290 kts | 303° |
| 2026-05-07 17:05 | 49.72224 | 15.03028 | 12437 ft | 295 kts | 304° |
| 2026-05-07 17:06 | 49.73508 | 15.00504 | 11862 ft | 301 kts | 304° |
| 2026-05-07 17:06 | 49.74804 | 14.97935 | 11331 ft | 306 kts | 304° |
| 2026-05-07 17:06 | 49.76130 | 14.95296 | 10709 ft | 314 kts | 304° |
| 2026-05-07 17:06 | 49.77482 | 14.92598 | 10080 ft | 320 kts | 304° |
| 2026-05-07 17:07 | 49.78837 | 14.89886 | 9423 ft | 316 kts | 305° |
| 2026-05-07 17:07 | 49.80160 | 14.87227 | 8772 ft | 310 kts | 304° |
| 2026-05-07 17:07 | 49.81461 | 14.84590 | 8138 ft | 305 kts | 304° |
| 2026-05-07 17:07 | 49.82716 | 14.82047 | 7957 ft | 286 kts | 304° |
| 2026-05-07 17:08 | 49.83864 | 14.79721 | 7996 ft | 260 kts | 304° |
| 2026-05-07 17:08 | 49.84916 | 14.77586 | 7989 ft | 239 kts | 304° |
| 2026-05-07 17:08 | 49.85879 | 14.75631 | 7982 ft | 218 kts | 303° |
| 2026-05-07 17:08 | 49.86766 | 14.73829 | 7971 ft | 205 kts | 303° |
| 2026-05-07 17:09 | 49.87615 | 14.72104 | 7971 ft | 198 kts | 303° |
| 2026-05-07 17:09 | 49.88436 | 14.70436 | 7809 ft | 192 kts | 303° |
| 2026-05-07 17:09 | 49.89260 | 14.68796 | 7605 ft | 194 kts | 303° |
| 2026-05-07 17:09 | 49.90059 | 14.67194 | 7388 ft | 177 kts | 303° |
| 2026-05-07 17:10 | 49.90761 | 14.65776 | 7209 ft | 158 kts | 303° |
| 2026-05-07 17:10 | 49.91412 | 14.64451 | 6993 ft | 151 kts | 302° |
| 2026-05-07 17:10 | 49.92038 | 14.63170 | 6796 ft | 148 kts | 302° |
| 2026-05-07 17:10 | 49.92658 | 14.61901 | 6600 ft | 147 kts | 302° |
| 2026-05-07 17:11 | 49.93272 | 14.60644 | 6412 ft | 146 kts | 302° |
| 2026-05-07 17:11 | 49.93907 | 14.59340 | 6203 ft | 156 kts | 303° |
| 2026-05-07 17:11 | 49.94574 | 14.57970 | 5995 ft | 161 kts | 303° |
| 2026-05-07 17:11 | 49.95253 | 14.56576 | 5765 ft | 162 kts | 303° |
| 2026-05-07 17:12 | 49.95932 | 14.55179 | 5546 ft | 161 kts | 303° |
| 2026-05-07 17:12 | 49.96608 | 14.53790 | 5349 ft | 161 kts | 303° |
| 2026-05-07 17:12 | 49.97284 | 14.52402 | 5132 ft | 161 kts | 303° |
| 2026-05-07 17:12 | 49.97957 | 14.51017 | 4922 ft | 160 kts | 304° |
| 2026-05-07 17:13 | 49.98627 | 14.49638 | 4700 ft | 160 kts | 304° |
| 2026-05-07 17:13 | 49.99295 | 14.48264 | 4480 ft | 159 kts | 303° |
| 2026-05-07 17:13 | 49.99949 | 14.46917 | 4265 ft | 158 kts | 304° |
| 2026-05-07 17:13 | 50.00616 | 14.45545 | 4050 ft | 157 kts | 304° |
| 2026-05-07 17:14 | 50.01273 | 14.44191 | 3839 ft | 157 kts | 304° |
| 2026-05-07 17:14 | 50.01919 | 14.42858 | 3626 ft | 156 kts | 303° |
| 2026-05-07 17:14 | 50.02579 | 14.41499 | 3421 ft | 155 kts | 303° |
| 2026-05-07 17:14 | 50.03226 | 14.40167 | 3202 ft | 154 kts | 304° |
| 2026-05-07 17:15 | 50.03866 | 14.38848 | 2997 ft | 155 kts | 304° |
| 2026-05-07 17:15 | 50.04512 | 14.37514 | 2806 ft | 154 kts | 304° |
| 2026-05-07 17:15 | 50.05162 | 14.36174 | 2583 ft | 153 kts | 304° |
| 2026-05-07 17:15 | 50.05792 | 14.34876 | 2377 ft | 153 kts | 305° |
| 2026-05-07 17:16 | 50.06427 | 14.33564 | 2171 ft | 146 kts | 305° |
| 2026-05-07 17:16 | 50.07017 | 14.32348 | 1978 ft | 138 kts | 306° |
| 2026-05-07 17:16 | 50.07591 | 14.31159 | 1776 ft | 138 kts | 306° |
| 2026-05-07 17:16 | 50.08166 | 14.29971 | 1561 ft | 136 kts | 306° |
| 2026-05-07 17:17 | 50.08742 | 14.28801 | 1364 ft | 135 kts | 306° |
| 2026-05-07 17:17 | 50.09298 | 14.27643 | 1240 ft | 128 kts | 304° |
| 2026-05-07 17:17 | 50.09761 | 14.26685 | 1210 ft | 90 kts | 307° |
| 2026-05-07 17:17 | 50.10048 | 14.26095 | 1190 ft | 46 kts | 307° |
| 2026-05-07 17:18 | 50.10169 | 14.25843 | 1187 ft | 25 kts | 308° |
| 2026-05-07 17:18 | 50.10326 | 14.25670 | 1186 ft | 31 kts | 345° |
| 2026-05-07 17:18 | 50.10361 | 14.25660 | 1186 ft | 0 kts | 353° |
| 2026-05-07 17:20 | 50.10367 | 14.25659 | 1186 ft | 2 kts | 354° |
| 2026-05-07 17:20 | 50.10391 | 14.25657 | 1186 ft | 7 kts | 358° |
| 2026-05-07 17:20 | 50.10418 | 14.25657 | 1186 ft | 3 kts | 2° |
| 2026-05-07 17:21 | 50.10428 | 14.25659 | 1186 ft | 4 kts | 9° |
| 2026-05-07 17:21 | 50.10445 | 14.25664 | 1187 ft | 0 kts | 10° |
| 2026-05-07 17:21 | 50.10454 | 14.25667 | 1187 ft | 6 kts | 12° |
| 2026-05-07 17:22 | 50.10519 | 14.25697 | 1186 ft | 3 kts | 31° |
| 2026-05-07 17:22 | 50.10582 | 14.25765 | 1185 ft | 18 kts | 35° |
| 2026-05-07 17:22 | 50.10669 | 14.25853 | 1184 ft | 17 kts | 34° |
| 2026-05-07 17:22 | 50.10734 | 14.25927 | 1176 ft | 13 kts | 36° |
| 2026-05-07 17:23 | 50.10751 | 14.25943 | 1176 ft | 2 kts | 16° |
| 2026-05-07 17:23 | 50.10787 | 14.25911 | 1177 ft | 13 kts | 316° |
| 2026-05-07 17:23 | 50.10805 | 14.25874 | 1176 ft | 0 kts | 305° |